Commit Graph

77 Commits

Author SHA1 Message Date
firestarsdog 8dd6090ef3 Stats 2026-02-01 22:46:57 -06:00
firestar5683 d95713f4d1 Revert "Mac Update"
This reverts commit ea45cbe017.
2026-01-19 11:42:50 -06:00
firestarsdog 83cb43b89b Add SASCM to vehicle settings detection/stats 2026-01-19 10:35:13 -06:00
firestar5683 ea45cbe017 Mac Update 2026-01-18 22:22:14 -06:00
firestarsdog 63d383b25d Stats 2026-01-18 22:17:33 -06:00
firestar5683 b4062aee1e Update redneck 2026-01-15 22:50:59 -06:00
firestar5683 d5370e728e fix redneck v2 2026-01-14 13:59:08 -06:00
firestar5683 8a250d2858 Remove lat smooth seconds 2026-01-14 13:49:54 -06:00
firestar5683 c3e1e7288d frogpilot migration 2026-01-12 22:10:50 -06:00
firestar5683 0b9580bef9 More defaults 2026-01-12 22:05:38 -06:00
firestar5683 5bad879e55 Update defaults 2026-01-12 22:00:37 -06:00
firestar5683 a074f21a22 Big Mac 2026-01-11 16:59:31 -06:00
firestar5683 e48ba846f2 Try Higher Friction 2026-01-10 14:05:08 -06:00
firestar5683 fb925bed9e Autotune Off 2026-01-09 22:42:28 -06:00
firestar5683 f5defdaf2b Revert "Pedal Braking Limits"
This reverts commit 99bbbdecc7.
2025-12-31 20:55:46 -06:00
firestar5683 99bbbdecc7 Pedal Braking Limits 2025-12-30 20:18:05 -06:00
firestar5683 234d0fd839 merry christmas 2025-12-24 22:05:43 -06:00
firestar5683 53f07efbea ds2 2025-12-24 21:30:02 -06:00
firestar5683 326d151c22 Try friction adjustment 2025-12-16 14:39:31 -06:00
firestar5683 0e804a744d Update frogpilot_tracking.py 2025-12-15 00:56:19 -06:00
firestar5683 4198a0b5b3 minsteer speed 2025-12-14 14:47:33 -06:00
firestar5683 7a9cad491e Update Percentages 2025-12-13 19:14:39 -06:00
firestar5683 5b2a526187 Trailer Load Gas Tuning 2025-12-12 10:52:25 -06:00
firestar5683 f6a713430f Live Friction 2025-12-11 16:55:02 -06:00
firestar5683 57df9bcb8f Zero error 2025-12-11 15:13:34 -06:00
firestar5683 0ad3c7d2ad Updates
Update latcontrol_torque.py

interp friction threshold
2025-12-09 19:59:03 -06:00
firestar5683 8730738d75 Change NoEntryAlert message to 'Reverse Gear' 2025-12-06 16:46:37 -06:00
firestar5683 5add756e0b Update events.py 2025-12-05 20:13:56 -06:00
firestar5683 0561c28111 LattyBoi2.0 2025-12-03 23:30:51 -06:00
firestar5683 7d0ad593f8 Latty Boi
Revert "Latty Boi"

This reverts commit af687e501cc4bdcda7840453d06595d7ea674148.

Reapply "Latty Boi"

This reverts commit ff5566d4439f5e4997fe83f4f21d0be62b75d75d.
2025-12-02 20:30:55 -06:00
firestar5683 8630c5d515 Recovery Power 2025-12-02 17:19:53 -06:00
firestar5683 9f24290bfd New planplus 2025-12-02 12:09:30 -06:00
Woohyun Rho 35b2647d5f Update 2025-11-28 17:12:28 -06:00
firestar5683 0cc453e26b Update interface.py 2025-11-18 20:50:08 -06:00
firestar5683 a49352e93d New Lateral Changes 2025-11-18 20:49:48 -06:00
firestar5683 e45f9f0c71 Update 2025-11-15 14:46:26 -06:00
firestar5683 7fa7f1e9f7 Accel Tests 2025-11-14 20:32:57 -06:00
firestar5683 60bd28ff13 Paddle Planner 2025-11-14 01:26:45 -06:00
firestar5683 c71f77ad83 Revert "Upstream Lateral"
This reverts commit 2db997763b.
2025-11-10 23:09:05 -06:00
firestar5683 2db997763b Upstream Lateral
Revert "Upstream Lateral"

This reverts commit 20f7d6631bb152860781b46533bb0e96223be132.

Reapply "Upstream Lateral"

This reverts commit 2a7a563e219a1b688529d341919fc377fed5038e.

Update latcontrol_torque.py

more lateral

Update ui
2025-11-07 00:14:49 -06:00
firestar5683 a22f6f8a9f Update 2025-10-25 15:38:29 -05:00
firestar5683 a248ab5af4 Medium Fanta 2025-10-22 22:27:04 -05:00
firestar5683 a7b04eb17a Update interfaces.py 2025-10-20 13:49:50 -05:00
firestar5683 0566438f2b no nnff 2025-10-19 18:00:03 -05:00
firestar5683 07deeea206 Scene Complexity 2025-10-18 14:25:25 -05:00
firestar5683 2379303a47 Update carcontroller.py 2025-10-17 19:11:02 -05:00
firestar5683 52881ebf63 Update interface.py 2025-10-17 18:14:07 -05:00
firestar5683 3b744c4a1b CEM 2025-10-17 17:39:47 -05:00
firestar5683 5ed463c519 lite 2025-10-17 17:13:44 -05:00
firestar5683 d5eff476f8 Redneck 2.0 2025-10-17 16:56:02 -05:00